Time;durP1;ratioP1;P1;durP2;ratioP2;P2;SDS_P1;SDS_P2;PMS_P1;PMS_P2;Temp;Humidity;BMP_temperature;BMP_pressure;BME280_temperature;BME280_humidity;BME280_pressure;Samples;Min_cycle;Max_cycle;Signal;HPM_P1;HPM_P2
2021/11/06 00:02:22;;;;;;;0.90;0.80;;;10.30;99.90;;;;;;6212930;22;20220;-86
2021/11/06 00:04:48;;;;;;;5.77;1.10;;;10.30;99.90;;;;;;6188182;23;20161;-86
2021/11/06 00:07:14;;;;;;;1.43;1.07;;;10.30;99.90;;;;;;6187877;23;20203;-86
2021/11/06 00:09:40;;;;;;;1.93;1.00;;;10.30;99.90;;;;;;6187579;23;20263;-86
2021/11/06 00:12:06;;;;;;;0.63;0.53;;;10.30;99.90;;;;;;6187790;23;20197;-85
2021/11/06 00:14:32;;;;;;;1.30;0.87;;;10.20;99.90;;;;;;6188077;23;20254;-86
2021/11/06 00:16:59;;;;;;;1.40;1.17;;;10.20;99.90;;;;;;6187874;23;20157;-86
2021/11/06 00:19:24;;;;;;;1.27;1.17;;;10.20;99.90;;;;;;6212282;23;20303;-85
2021/11/06 00:21:51;;;;;;;1.13;0.93;;;10.20;99.90;;;;;;6212277;23;20264;-86
2021/11/06 00:24:19;;;;;;;4.10;1.40;;;10.20;99.90;;;;;;6212384;23;20216;-86
2021/11/06 00:26:49;;;;;;;8.17;1.43;;;10.20;99.90;;;;;;6188085;23;20201;-86
2021/11/06 00:29:18;;;;;;;1.30;1.20;;;10.20;99.90;;;;;;6164407;22;20633;-87
2021/11/06 00:31:45;;;;;;;1.87;1.23;;;10.20;99.90;;;;;;6189279;23;20558;-87
2021/11/06 00:34:11;;;;;;;1.70;1.40;;;10.30;99.90;;;;;;6238576;22;20634;-86
2021/11/06 00:36:37;;;;;;;6.00;1.23;;;10.30;99.90;;;;;;6162472;23;20309;-86
2021/11/06 00:39:04;;;;;;;1.63;1.23;;;10.30;99.90;;;;;;6187504;23;20289;-86
2021/11/06 00:41:30;;;;;;;1.03;0.93;;;10.30;99.90;;;;;;6187872;23;20189;-87
2021/11/06 00:43:56;;;;;;;0.83;0.77;;;10.40;99.90;;;;;;6212271;23;20195;-87
2021/11/06 00:46:22;;;;;;;1.27;1.17;;;10.40;99.90;;;;;;6162481;23;20189;-87
2021/11/06 00:48:47;;;;;;;1.10;1.00;;;10.40;99.90;;;;;;6186763;23;20201;-87
2021/11/06 00:51:13;;;;;;;3.90;1.40;;;10.40;99.90;;;;;;6162618;23;20216;-87
2021/11/06 00:53:39;;;;;;;1.27;0.87;;;10.40;99.90;;;;;;6212792;23;20284;-88
2021/11/06 00:56:05;;;;;;;6.57;1.93;;;10.40;99.90;;;;;;6162402;22;20664;-87
2021/11/06 00:58:32;;;;;;;6.07;1.33;;;10.40;99.90;;;;;;6188359;23;20181;-87
2021/11/06 01:00:58;;;;;;;6.50;1.90;;;10.40;99.90;;;;;;6187335;23;20267;-87
2021/11/06 01:03:23;;;;;;;2.27;2.03;;;10.40;99.90;;;;;;6187205;23;20213;-87
2021/11/06 01:05:49;;;;;;;2.13;0.83;;;10.40;99.90;;;;;;6212553;23;20288;-87
2021/11/06 01:08:15;;;;;;;1.77;1.37;;;10.40;99.90;;;;;;6187714;22;20236;-87
2021/11/06 01:10:43;;;;;;;2.13;1.77;;;10.40;99.90;;;;;;6213419;23;20498;-87
2021/11/06 01:13:10;;;;;;;2.93;1.43;;;10.50;99.90;;;;;;6187784;23;20197;-87
2021/11/06 01:15:36;;;;;;;5.33;2.80;;;10.50;99.90;;;;;;6187573;23;20204;-87
2021/11/06 01:18:02;;;;;;;3.87;1.87;;;10.50;99.90;;;;;;6187262;23;20669;-87
2021/11/06 01:20:28;;;;;;;3.40;2.03;;;10.60;99.90;;;;;;6162777;23;20193;-87
2021/11/06 01:22:54;;;;;;;4.47;3.40;;;10.60;99.90;;;;;;6188111;23;20285;-87
2021/11/06 01:25:20;;;;;;;2.47;2.23;;;10.60;99.90;;;;;;6212130;23;20280;-87
2021/11/06 01:27:47;;;;;;;6.00;3.27;;;10.70;99.90;;;;;;6187098;23;20201;-87
2021/11/06 01:30:14;;;;;;;4.93;2.27;;;10.70;99.90;;;;;;6212276;23;20626;-88
2021/11/06 01:32:40;;;;;;;1.87;1.57;;;10.70;99.90;;;;;;6162767;23;20197;-87
2021/11/06 01:35:08;;;;;;;3.63;2.77;;;10.80;99.90;;;;;;6211805;22;20188;-87
2021/11/06 01:37:34;;;;;;;4.00;2.53;;;10.80;99.90;;;;;;6213359;23;20490;-87
2021/11/06 01:40:00;;;;;;;11.07;2.87;;;10.80;99.90;;;;;;6162586;23;20201;-87
2021/11/06 01:42:27;;;;;;;4.47;2.70;;;10.80;99.90;;;;;;6211540;23;20200;-88
2021/11/06 01:44:53;;;;;;;9.63;3.10;;;10.90;99.90;;;;;;6162747;23;20669;-87
2021/11/06 01:47:19;;;;;;;10.20;3.13;;;10.90;99.90;;;;;;6186805;22;20204;-87
2021/11/06 01:49:45;;;;;;;4.53;3.30;;;10.90;99.90;;;;;;6188382;23;20153;-86
2021/11/06 01:52:11;;;;;;;5.93;4.07;;;10.90;99.90;;;;;;6187040;23;20205;-88
2021/11/06 01:54:36;;;;;;;3.43;2.70;;;10.90;99.90;;;;;;6162697;23;20190;-88
2021/11/06 01:57:03;;;;;;;3.90;3.30;;;11.00;99.90;;;;;;6187271;23;20622;-87
2021/11/06 01:59:29;;;;;;;4.23;2.77;;;11.00;99.90;;;;;;6212109;23;20200;-88
2021/11/06 02:01:56;;;;;;;4.60;2.97;;;11.00;99.90;;;;;;6188291;23;20185;-87
2021/11/06 02:04:23;;;;;;;3.60;3.13;;;11.00;99.90;;;;;;6187519;23;20197;-87
2021/11/06 02:06:49;;;;;;;9.23;3.10;;;11.00;99.90;;;;;;6186746;23;20258;-87
2021/11/06 02:09:14;;;;;;;4.57;3.93;;;11.00;99.90;;;;;;6187031;23;20197;-87
2021/11/06 02:11:40;;;;;;;4.70;3.43;;;11.10;99.90;;;;;;6162651;23;20204;-87
2021/11/06 02:14:07;;;;;;;2.53;2.33;;;11.10;99.90;;;;;;6187459;22;20193;-87
2021/11/06 02:16:33;;;;;;;6.67;3.93;;;11.10;99.90;;;;;;6213175;23;20169;-87
2021/11/06 02:18:59;;;;;;;8.33;3.90;;;11.10;99.90;;;;;;6186705;23;21034;-87
2021/11/06 02:21:25;;;;;;;7.03;3.20;;;11.10;99.90;;;;;;6211951;23;20200;-87
2021/11/06 02:23:51;;;;;;;6.03;2.97;;;11.10;99.90;;;;;;6212039;23;20205;-88
2021/11/06 02:26:19;;;;;;;4.57;2.97;;;11.10;99.90;;;;;;6187050;22;20215;-87
2021/11/06 02:28:53;;;;;;;5.53;3.93;;;11.10;99.90;;;;;;6188037;23;20158;-87
2021/11/06 02:31:20;;;;;;;3.87;2.37;;;11.10;99.90;;;;;;6214043;23;20729;-87
2021/11/06 02:33:48;;;;;;;7.63;4.00;;;11.10;99.90;;;;;;6213719;23;20731;-87
2021/11/06 02:36:14;;;;;;;3.73;2.93;;;11.10;99.90;;;;;;6239875;22;20200;-87
2021/11/06 02:38:41;;;;;;;3.60;3.00;;;11.10;99.90;;;;;;6188797;23;20201;-87
2021/11/06 02:41:07;;;;;;;5.77;3.40;;;11.10;99.90;;;;;;6188526;22;20681;-87
2021/11/06 02:43:33;;;;;;;10.60;3.27;;;11.00;99.90;;;;;;6189473;23;20181;-87
2021/11/06 02:45:59;;;;;;;7.80;3.77;;;11.00;99.90;;;;;;6164025;23;20211;-87
2021/11/06 02:48:25;;;;;;;3.50;3.10;;;11.10;99.90;;;;;;6163646;23;20689;-88
2021/11/06 02:50:51;;;;;;;4.43;2.47;;;11.00;99.90;;;;;;6213864;23;20197;-87
2021/11/06 02:53:16;;;;;;;22.30;3.40;;;11.00;99.90;;;;;;6163287;22;20165;-87
2021/11/06 02:55:42;;;;;;;4.83;2.93;;;11.00;99.90;;;;;;6214612;23;20197;-87
2021/11/06 02:58:08;;;;;;;7.30;3.00;;;11.00;99.90;;;;;;6163642;23;20200;-87
2021/11/06 03:00:34;;;;;;;9.80;4.93;;;11.00;99.90;;;;;;6164057;23;20224;-87
2021/11/06 03:03:00;;;;;;;4.93;3.70;;;11.00;99.90;;;;;;6163485;23;20619;-87
2021/11/06 03:05:26;;;;;;;4.30;3.73;;;11.00;99.90;;;;;;6188360;22;20684;-87
2021/11/06 03:07:52;;;;;;;10.43;4.53;;;11.10;99.90;;;;;;6189335;23;20161;-87
2021/11/06 03:10:18;;;;;;;5.17;4.30;;;11.10;99.90;;;;;;6188228;23;20258;-87
2021/11/06 03:12:45;;;;;;;4.77;3.47;;;11.10;99.90;;;;;;6213698;23;20197;-87
2021/11/06 03:15:11;;;;;;;12.30;4.10;;;11.00;99.90;;;;;;6213326;23;20189;-87
2021/11/06 03:17:37;;;;;;;12.13;4.33;;;11.10;99.90;;;;;;6163480;23;20749;-87
2021/11/06 03:20:04;;;;;;;6.30;4.17;;;11.10;99.90;;;;;;6213579;23;20247;-88
2021/11/06 03:22:30;;;;;;;9.73;4.53;;;11.10;99.90;;;;;;6164298;23;20575;-87
2021/11/06 03:24:56;;;;;;;6.77;4.23;;;11.10;99.90;;;;;;6163289;23;20198;-87
2021/11/06 03:27:22;;;;;;;6.60;4.30;;;11.10;99.90;;;;;;6188426;23;20196;-87
2021/11/06 03:29:50;;;;;;;6.33;3.77;;;11.20;99.90;;;;;;6188568;23;20193;-88
2021/11/06 03:32:15;;;;;;;6.73;4.77;;;11.10;99.90;;;;;;6188293;22;20591;-88
2021/11/06 03:34:41;;;;;;;4.50;3.37;;;11.10;99.90;;;;;;6164418;23;20236;-87
2021/11/06 03:37:07;;;;;;;7.70;3.70;;;11.20;99.90;;;;;;6163156;23;20197;-88
2021/11/06 03:39:35;;;;;;;8.10;3.97;;;11.20;99.90;;;;;;6164077;23;20205;-87
2021/11/06 03:42:01;;;;;;;8.53;4.47;;;11.20;99.90;;;;;;6212431;23;20538;-87
2021/11/06 03:44:26;;;;;;;8.93;4.60;;;11.20;99.90;;;;;;6163469;22;20203;-87
2021/11/06 03:46:52;;;;;;;13.70;4.57;;;11.20;99.90;;;;;;6163727;23;20606;-89
2021/11/06 03:49:18;;;;;;;10.57;4.27;;;11.20;99.90;;;;;;6162992;23;20197;-88
2021/11/06 03:51:44;;;;;;;12.97;3.53;;;11.20;99.90;;;;;;6188048;23;20278;-88
2021/11/06 03:54:10;;;;;;;4.97;3.47;;;11.20;99.90;;;;;;6188270;23;20276;-87
2021/11/06 03:56:36;;;;;;;5.10;3.20;;;11.20;99.90;;;;;;6163505;23;20220;-87
2021/11/06 03:59:02;;;;;;;8.40;4.13;;;11.20;99.90;;;;;;6163814;23;20166;-88
2021/11/06 04:01:28;;;;;;;11.33;3.27;;;11.10;99.90;;;;;;6212712;23;20283;-87
2021/11/06 04:03:53;;;;;;;8.17;4.17;;;11.10;99.90;;;;;;6162970;23;20388;-87
2021/11/06 04:06:21;;;;;;;5.07;3.87;;;11.10;99.90;;;;;;6163563;23;20197;-87
2021/11/06 04:08:46;;;;;;;7.53;5.27;;;11.10;99.90;;;;;;6164138;23;20204;-87
2021/11/06 04:11:12;;;;;;;7.93;4.97;;;11.10;99.90;;;;;;6187787;22;20166;-88
2021/11/06 04:13:38;;;;;;;8.73;5.03;;;11.10;99.90;;;;;;6188760;23;20164;-87
2021/11/06 04:16:04;;;;;;;8.20;3.83;;;11.10;99.90;;;;;;6187670;23;20201;-87
2021/11/06 04:18:30;;;;;;;4.90;4.40;;;11.10;99.90;;;;;;6239610;22;20193;-88
2021/11/06 04:20:56;;;;;;;4.17;3.53;;;11.10;99.90;;;;;;6188063;23;20271;-87
2021/11/06 04:23:22;;;;;;;3.57;3.17;;;11.10;99.90;;;;;;6162790;22;20181;-87
2021/11/06 04:25:47;;;;;;;5.20;3.60;;;11.10;99.90;;;;;;6188341;23;20166;-87
2021/11/06 04:28:14;;;;;;;6.73;3.60;;;11.10;99.90;;;;;;6162168;23;20204;-87
2021/11/06 04:30:40;;;;;;;12.40;3.90;;;11.10;99.90;;;;;;6212261;23;20208;-88
2021/11/06 04:33:06;;;;;;;7.83;3.33;;;11.10;99.90;;;;;;6212322;23;20618;-87
2021/11/06 04:35:32;;;;;;;6.73;3.27;;;11.10;99.90;;;;;;6188308;23;20250;-87
2021/11/06 04:37:58;;;;;;;4.87;3.57;;;11.10;99.90;;;;;;6188059;23;20161;-88
2021/11/06 04:40:23;;;;;;;6.23;3.30;;;11.10;99.90;;;;;;6162472;23;20204;-88
2021/11/06 04:42:49;;;;;;;8.50;4.70;;;11.10;99.90;;;;;;6162104;23;20212;-88
2021/11/06 04:45:15;;;;;;;6.23;3.57;;;11.10;99.90;;;;;;6187972;23;20537;-87
2021/11/06 04:47:41;;;;;;;6.37;4.53;;;11.10;99.90;;;;;;6187670;23;20300;-87
2021/11/06 04:50:09;;;;;;;20.00;4.40;;;11.10;99.90;;;;;;6187541;22;20252;-87
2021/11/06 04:52:36;;;;;;;11.97;3.77;;;11.10;99.90;;;;;;6239596;23;20157;-87
2021/11/06 04:55:04;;;;;;;8.87;4.40;;;11.10;99.90;;;;;;6212392;23;20210;-88
2021/11/06 04:57:30;;;;;;;7.03;3.33;;;11.10;99.90;;;;;;6211803;23;20251;-88
2021/11/06 04:59:55;;;;;;;3.77;3.37;;;11.10;99.90;;;;;;6187777;23;20692;-87
2021/11/06 05:02:21;;;;;;;4.97;3.50;;;11.10;99.90;;;;;;6162933;22;20495;-87
2021/11/06 05:04:48;;;;;;;4.33;3.80;;;11.10;99.90;;;;;;6187881;23;20168;-88
2021/11/06 05:07:14;;;;;;;6.70;3.50;;;11.10;99.90;;;;;;6162932;23;20193;-87
2021/11/06 05:09:40;;;;;;;8.03;3.93;;;11.00;99.90;;;;;;6186983;23;20965;-88
2021/11/06 05:12:06;;;;;;;3.23;2.93;;;11.00;99.90;;;;;;6187231;23;20223;-87
2021/11/06 05:14:32;;;;;;;4.10;2.73;;;11.10;99.90;;;;;;6163341;23;20280;-87
2021/11/06 05:16:58;;;;;;;4.27;3.83;;;11.10;99.90;;;;;;6163459;23;20214;-88
2021/11/06 05:19:23;;;;;;;2.90;2.60;;;11.10;99.90;;;;;;6162856;23;20196;-88
2021/11/06 05:21:49;;;;;;;3.70;3.23;;;11.10;99.90;;;;;;6187146;23;20197;-88
2021/11/06 05:24:15;;;;;;;7.83;4.27;;;11.10;99.90;;;;;;6187309;23;20552;-88
2021/11/06 05:26:41;;;;;;;3.87;2.57;;;11.10;99.90;;;;;;6162968;23;20204;-87
2021/11/06 05:29:09;;;;;;;4.87;3.37;;;11.10;99.90;;;;;;6187772;22;20161;-87
2021/11/06 05:31:36;;;;;;;8.57;3.47;;;11.10;99.90;;;;;;6188079;23;20605;-87
2021/11/06 05:34:03;;;;;;;13.07;3.83;;;11.20;99.90;;;;;;6187119;23;20202;-87
2021/11/06 05:36:29;;;;;;;5.80;3.20;;;11.20;99.90;;;;;;6187540;23;20565;-87
2021/11/06 05:38:56;;;;;;;2.43;2.00;;;11.20;99.90;;;;;;6212575;23;20291;-88
2021/11/06 05:41:22;;;;;;;5.27;2.63;;;11.20;99.90;;;;;;6187681;22;20157;-88
2021/11/06 05:43:48;;;;;;;2.30;1.47;;;11.30;99.90;;;;;;6239417;23;20244;-87
2021/11/06 05:46:14;;;;;;;4.63;2.43;;;11.40;99.90;;;;;;6162267;23;20201;-89
2021/11/06 05:48:40;;;;;;;4.30;2.50;;;11.40;99.90;;;;;;6212157;23;20213;-88
2021/11/06 05:51:05;;;;;;;2.40;2.13;;;11.50;99.90;;;;;;6162291;23;20620;-88
2021/11/06 05:53:31;;;;;;;2.30;2.07;;;11.50;99.90;;;;;;6212520;23;20189;-88
2021/11/06 05:55:58;;;;;;;6.63;2.77;;;11.60;99.90;;;;;;6188559;23;20161;-88
2021/11/06 05:58:24;;;;;;;6.03;2.83;;;11.60;99.90;;;;;;6162048;23;20216;-88
2021/11/06 06:00:50;;;;;;;10.07;2.07;;;11.70;99.90;;;;;;6238855;22;20605;-88
2021/11/06 06:03:15;;;;;;;6.90;3.37;;;11.70;99.90;;;;;;6212186;23;20258;-88
2021/11/06 06:05:42;;;;;;;3.53;2.30;;;11.70;99.90;;;;;;6164145;23;20201;-88
2021/11/06 06:08:08;;;;;;;2.63;2.43;;;11.70;99.90;;;;;;6214062;22;20160;-88
2021/11/06 06:10:33;;;;;;;3.00;2.00;;;11.70;99.90;;;;;;6190198;23;20474;-88
2021/11/06 06:12:59;;;;;;;4.77;3.13;;;11.70;99.90;;;;;;6164475;23;20201;-88
2021/11/06 06:15:25;;;;;;;7.40;2.63;;;11.70;99.90;;;;;;6164239;23;20633;-88
2021/11/06 06:17:51;;;;;;;5.30;2.73;;;11.70;99.90;;;;;;6164513;23;20271;-87
2021/11/06 06:20:18;;;;;;;4.70;2.53;;;11.70;99.90;;;;;;6214005;22;20165;-88
2021/11/06 06:22:45;;;;;;;8.10;3.80;;;11.70;99.90;;;;;;6214258;23;20181;-87
2021/11/06 06:25:12;;;;;;;4.53;2.63;;;11.80;99.90;;;;;;6213672;23;20665;-88
2021/11/06 06:27:39;;;;;;;4.07;2.40;;;11.80;99.90;;;;;;6189130;23;20280;-88
2021/11/06 06:30:07;;;;;;;3.03;2.33;;;11.80;99.90;;;;;;6164367;23;20193;-88
2021/11/06 06:32:33;;;;;;;3.27;2.20;;;11.80;99.90;;;;;;6240581;22;20212;-87
2021/11/06 06:34:58;;;;;;;6.90;2.70;;;11.70;99.90;;;;;;6190345;23;20552;-87
2021/11/06 06:37:24;;;;;;;5.20;3.33;;;11.70;99.90;;;;;;6163921;23;20193;-88
2021/11/06 06:39:50;;;;;;;18.43;3.63;;;11.80;99.90;;;;;;6213978;23;20220;-88
2021/11/06 06:42:17;;;;;;;2.23;2.00;;;11.80;99.90;;;;;;6164130;23;20642;-88
2021/11/06 06:44:42;;;;;;;3.70;1.67;;;11.80;99.90;;;;;;6189179;23;20263;-88
2021/11/06 06:47:10;;;;;;;5.33;3.77;;;11.80;99.90;;;;;;6163852;22;20201;-88
2021/11/06 06:49:36;;;;;;;5.83;2.77;;;11.80;99.90;;;;;;6214419;23;20150;-87
2021/11/06 06:52:02;;;;;;;3.00;1.83;;;11.80;99.90;;;;;;6163185;23;20256;-88
2021/11/06 06:54:27;;;;;;;3.03;2.50;;;11.80;99.90;;;;;;6188655;23;20189;-87
2021/11/06 06:56:53;;;;;;;2.93;2.13;;;11.80;99.90;;;;;;6163743;23;20189;-87
2021/11/06 06:59:19;;;;;;;5.77;2.40;;;11.80;99.90;;;;;;6164082;22;20539;-87
2021/11/06 07:01:46;;;;;;;3.93;2.57;;;11.80;99.90;;;;;;6188671;23;20168;-87
2021/11/06 07:04:12;;;;;;;4.57;3.10;;;11.80;99.90;;;;;;6188409;23;20220;-87
2021/11/06 07:06:38;;;;;;;2.70;2.50;;;11.80;99.90;;;;;;6163866;23;20197;-88
2021/11/06 07:09:05;;;;;;;4.27;2.73;;;11.80;99.90;;;;;;6164263;23;20196;-92
2021/11/06 07:11:30;;;;;;;4.50;2.40;;;11.80;99.90;;;;;;6164251;23;20591;-89
2021/11/06 07:13:56;;;;;;;3.90;1.90;;;11.90;99.90;;;;;;6165248;23;20169;-88
2021/11/06 07:16:23;;;;;;;3.23;2.50;;;11.90;99.90;;;;;;6187730;23;20289;-85
2021/11/06 07:18:49;;;;;;;3.40;2.10;;;11.90;99.90;;;;;;6188014;23;20229;-83
2021/11/06 07:21:15;;;;;;;2.97;2.10;;;11.90;99.90;;;;;;6163063;23;20209;-83
2021/11/06 07:23:40;;;;;;;2.53;2.33;;;11.90;99.90;;;;;;6187649;23;20275;-84
2021/11/06 07:26:06;;;;;;;4.90;2.67;;;11.90;99.90;;;;;;6212217;22;20189;-83
2021/11/06 07:28:32;;;;;;;5.87;3.27;;;11.90;99.90;;;;;;6163668;23;20158;-83
2021/11/06 07:30:59;;;;;;;4.43;1.53;;;11.90;99.90;;;;;;6187444;23;20653;-83
2021/11/06 07:33:24;;;;;;;2.87;2.50;;;12.00;99.90;;;;;;6238725;22;20197;-84
2021/11/06 07:35:50;;;;;;;4.13;2.73;;;12.00;99.90;;;;;;6211822;23;20259;-83
2021/11/06 07:38:17;;;;;;;4.90;1.93;;;12.00;99.90;;;;;;6211901;22;20161;-84
2021/11/06 07:40:43;;;;;;;5.20;3.37;;;11.90;99.90;;;;;;6212498;23;20157;-82
2021/11/06 07:43:10;;;;;;;5.33;2.20;;;12.00;99.90;;;;;;6211605;23;20205;-84
2021/11/06 07:45:36;;;;;;;3.27;2.57;;;12.00;99.90;;;;;;6162493;23;20190;-84
2021/11/06 07:48:02;;;;;;;5.83;3.17;;;12.00;99.90;;;;;;6161978;23;20224;-83
2021/11/06 07:50:30;;;;;;;6.00;2.80;;;12.00;99.90;;;;;;6212267;22;20299;-84
2021/11/06 07:52:56;;;;;;;4.80;2.90;;;12.00;99.90;;;;;;6212846;23;20603;-83
2021/11/06 07:55:21;;;;;;;4.80;2.87;;;12.10;99.90;;;;;;6237965;22;20293;-84
2021/11/06 07:57:48;;;;;;;5.30;2.47;;;12.10;99.90;;;;;;6186974;23;20894;-83
2021/11/06 08:00:17;;;;;;;1.90;1.63;;;12.20;99.90;;;;;;6211597;23;20942;-83
2021/11/06 08:02:44;;;;;;;3.17;2.63;;;12.20;99.90;;;;;;6210926;23;20215;-83
2021/11/06 08:05:12;;;;;;;12.93;3.93;;;12.20;99.90;;;;;;6187015;22;20642;-83
2021/11/06 08:07:38;;;;;;;2.83;2.30;;;12.30;99.90;;;;;;6211912;23;20253;-84
2021/11/06 08:10:05;;;;;;;2.77;2.10;;;12.30;99.90;;;;;;6211479;23;20193;-84
2021/11/06 08:12:33;;;;;;;3.70;2.60;;;12.30;99.90;;;;;;6162714;23;20233;-85
2021/11/06 08:15:00;;;;;;;8.17;2.27;;;12.30;99.90;;;;;;6189220;23;20219;-96
2021/11/06 08:17:28;;;;;;;6.10;2.97;;;12.30;99.90;;;;;;6164234;22;20197;-93
2021/11/06 08:19:55;;;;;;;8.50;2.67;;;12.30;99.90;;;;;;6164358;23;20157;-93
2021/11/06 08:22:21;;;;;;;3.13;2.83;;;12.30;99.90;;;;;;6164598;23;20295;-94
2021/11/06 08:24:47;;;;;;;12.93;2.47;;;12.30;99.90;;;;;;6219430;23;20201;-94
2021/11/06 08:27:14;;;;;;;7.70;2.50;;;12.30;99.90;;;;;;6162745;23;20197;-94
2021/11/06 08:29:41;;;;;;;3.07;2.60;;;12.30;99.90;;;;;;6191018;23;20499;-92
2021/11/06 08:32:07;;;;;;;4.43;2.63;;;12.30;99.90;;;;;;6188894;22;20571;-91
2021/11/06 08:34:33;;;;;;;2.53;2.30;;;12.20;99.90;;;;;;6190055;23;20183;-92
2021/11/06 08:37:00;;;;;;;5.00;2.63;;;12.20;99.90;;;;;;6214205;23;20280;-90
2021/11/06 08:39:27;;;;;;;4.67;1.40;;;12.30;99.90;;;;;;6214373;23;20552;-92
2021/11/06 08:41:55;;;;;;;4.53;1.97;;;12.20;99.90;;;;;;6163831;23;20201;-91
2021/11/06 08:44:22;;;;;;;2.03;1.60;;;12.30;99.90;;;;;;6214403;22;20190;-94
2021/11/06 08:46:51;;;;;;;2.80;1.77;;;12.30;99.90;;;;;;6165625;23;20192;-93
2021/11/06 08:49:39;;;;;;;2.27;1.07;;;12.30;99.90;;;;;;6213935;23;20228;-91
2021/11/06 08:53:24;;;;;;;3.07;0.97;;;12.40;99.90;;;;;;6243059;23;20242;-92
2021/11/06 08:55:55;;;;;;;4.63;1.23;;;12.50;99.90;;;;;;6236428;23;20177;-91
2021/11/06 08:58:33;;;;;;;6.13;1.57;;;12.50;99.90;;;;;;6145675;23;20190;-95
2021/11/06 09:01:00;;;;;;;4.30;1.10;;;12.60;99.90;;;;;;6228010;23;20185;-96
2021/11/06 09:03:32;;;;;;;7.10;1.40;;;12.60;99.90;;;;;;6226605;23;20201;-96
2021/11/06 09:06:04;;;;;;;2.97;1.20;;;12.70;99.90;;;;;;6233406;23;20235;-96
2021/11/06 09:08:32;;;;;;;1.10;1.00;;;12.70;99.90;;;;;;6217794;23;20193;-91
2021/11/06 09:11:02;;;;;;;2.43;0.80;;;12.80;99.90;;;;;;6215117;23;20436;-93
2021/11/06 09:13:29;;;;;;;2.30;0.70;;;12.80;99.90;;;;;;6215174;23;20924;-93
2021/11/06 09:15:55;;;;;;;2.43;0.90;;;12.80;99.90;;;;;;6214617;23;20301;-93
2021/11/06 09:18:21;;;;;;;2.27;1.40;;;12.80;99.90;;;;;;6164136;23;20197;-92
2021/11/06 09:20:47;;;;;;;4.60;1.10;;;12.80;99.90;;;;;;6164554;23;20219;-93
2021/11/06 09:23:13;;;;;;;2.10;1.13;;;12.80;99.90;;;;;;6214105;22;20193;-92
2021/11/06 09:25:40;;;;;;;0.90;0.87;;;12.80;99.90;;;;;;6189734;23;20161;-92
2021/11/06 09:28:06;;;;;;;2.53;1.20;;;12.80;99.90;;;;;;6188663;23;20189;-92
2021/11/06 09:30:31;;;;;;;1.33;1.03;;;12.80;99.90;;;;;;6188799;23;20752;-91
2021/11/06 09:32:57;;;;;;;2.00;0.90;;;12.90;99.90;;;;;;6194571;23;20211;-95
2021/11/06 09:35:23;;;;;;;3.87;1.10;;;12.90;99.90;;;;;;6219400;22;20161;-94
2021/11/06 09:37:49;;;;;;;4.27;1.07;;;12.90;99.90;;;;;;6192159;23;20157;-94
2021/11/06 09:40:15;;;;;;;4.23;0.67;;;13.00;99.90;;;;;;6192317;23;20251;-93
2021/11/06 09:42:42;;;;;;;0.60;0.60;;;13.00;99.90;;;;;;6152287;23;20198;-95
2021/11/06 09:45:10;;;;;;;5.13;1.10;;;13.00;99.90;;;;;;6220438;23;20891;-96
2021/11/06 09:47:38;;;;;;;3.77;1.37;;;13.00;99.90;;;;;;6192745;23;20982;-95
2021/11/06 09:50:05;;;;;;;4.63;1.13;;;13.10;99.90;;;;;;6220909;22;20172;-96
2021/11/06 09:52:31;;;;;;;6.30;1.23;;;13.20;99.90;;;;;;6218292;23;20181;-95
2021/11/06 09:54:59;;;;;;;3.33;1.30;;;13.30;99.90;;;;;;6222053;23;20235;-96
2021/11/06 09:57:25;;;;;;;5.40;0.87;;;13.30;99.90;;;;;;6227333;23;20250;-94
2021/11/06 09:59:51;;;;;;;2.37;1.17;;;13.30;99.90;;;;;;6228690;23;20220;-94
2021/11/06 10:02:18;;;;;;;5.43;2.23;;;13.40;99.90;;;;;;6219788;22;20154;-96
2021/11/06 10:04:49;;;;;;;1.40;1.10;;;13.60;99.90;;;;;;6210273;23;20158;-96
2021/11/06 10:07:21;;;;;;;2.50;1.40;;;13.60;99.90;;;;;;6228778;23;20193;-96
2021/11/06 10:10:11;;;;;;;1.63;1.07;;;13.60;99.90;;;;;;6197049;23;20534;-96
2021/11/06 10:12:50;;;;;;;9.23;1.00;;;13.70;99.90;;;;;;6221378;23;20197;-95
2021/11/06 10:15:18;;;;;;;3.90;1.17;;;13.60;99.90;;;;;;6181146;23;20197;-96
2021/11/06 10:17:46;;;;;;;4.33;1.37;;;13.50;99.90;;;;;;6224765;23;20527;-96
2021/11/06 10:20:21;;;;;;;5.03;1.40;;;13.50;99.90;;;;;;6219338;22;20185;-93
2021/11/06 10:22:54;;;;;;;7.97;1.93;;;13.40;99.90;;;;;;6258314;23;20211;-96
2021/11/06 10:25:22;;;;;;;4.10;2.37;;;13.40;99.90;;;;;;6228557;23;20193;-96
2021/11/06 10:27:53;;;;;;;2.77;1.63;;;13.40;99.90;;;;;;6215578;23;20193;-95
2021/11/06 10:30:32;;;;;;;2.97;1.57;;;13.40;99.90;;;;;;6217133;23;20638;-96
2021/11/06 10:33:03;;;;;;;3.30;1.50;;;13.40;99.90;;;;;;6166963;23;20208;-93
2021/11/06 10:35:35;;;;;;;5.23;1.60;;;13.40;99.90;;;;;;6218717;23;20207;-95
2021/11/06 10:38:23;;;;;;;3.60;1.47;;;13.40;99.90;;;;;;6194045;23;20208;-95
2021/11/06 10:41:02;;;;;;;2.80;2.03;;;13.30;99.90;;;;;;6216099;23;20184;-95
2021/11/06 10:43:35;;;;;;;2.77;1.30;;;13.30;99.90;;;;;;6242309;23;20201;-94
2021/11/06 10:46:02;;;;;;;7.83;2.27;;;13.20;99.90;;;;;;6192060;23;20570;-94
2021/11/06 10:48:33;;;;;;;6.27;1.57;;;13.10;99.90;;;;;;6190908;23;20679;-95
2021/11/06 10:51:06;;;;;;;5.33;1.67;;;13.10;99.90;;;;;;6216359;23;20201;-95
2021/11/06 10:53:38;;;;;;;3.30;1.40;;;13.10;99.90;;;;;;6191104;23;20568;-94
2021/11/06 10:56:28;;;;;;;7.40;2.77;;;13.20;99.90;;;;;;6219405;23;20149;-96
2021/11/06 10:59:02;;;;;;;1.60;1.47;;;13.40;99.90;;;;;;6219459;23;20342;-96
2021/11/06 11:01:40;;;;;;;1.83;1.40;;;13.50;99.90;;;;;;6217333;23;20193;-95
2021/11/06 11:04:15;;;;;;;4.10;2.03;;;13.60;99.90;;;;;;6214975;23;20209;-94
2021/11/06 11:06:52;;;;;;;3.13;2.40;;;13.70;99.90;;;;;;6214829;23;20579;-95
2021/11/06 11:09:26;;;;;;;2.40;1.90;;;13.90;99.90;;;;;;6247934;22;20592;-95
2021/11/06 11:11:54;;;;;;;5.13;2.03;;;13.90;99.90;;;;;;6215197;23;20244;-94
2021/11/06 11:14:30;;;;;;;1.57;1.10;;;13.90;99.90;;;;;;6214040;22;20244;-94
2021/11/06 11:17:04;;;;;;;3.73;1.93;;;14.00;99.90;;;;;;6215512;23;20260;-94
2021/11/06 11:19:39;;;;;;;8.10;3.00;;;14.00;99.90;;;;;;6214331;23;20255;-96
2021/11/06 11:22:19;;;;;;;5.33;2.73;;;14.10;99.90;;;;;;6240766;22;20207;-95
2021/11/06 11:24:48;;;;;;;5.23;2.00;;;14.00;99.90;;;;;;6215266;23;20270;-95
2021/11/06 11:27:16;;;;;;;12.03;3.13;;;14.00;99.90;;;;;;6214131;23;20204;-96
2021/11/06 11:29:43;;;;;;;2.60;1.87;;;14.00;99.90;;;;;;6214270;23;20204;-95
2021/11/06 11:32:11;;;;;;;9.10;2.17;;;13.90;99.90;;;;;;6166127;22;20157;-94
2021/11/06 11:34:42;;;;;;;6.43;2.70;;;13.90;99.90;;;;;;6243401;23;20584;-96
2021/11/06 11:37:11;;;;;;;4.77;3.27;;;13.90;99.90;;;;;;6222529;23;20215;-96
2021/11/06 11:39:38;;;;;;;3.80;2.30;;;14.00;99.90;;;;;;6224022;23;20204;-95
2021/11/06 11:42:22;;;;;;;4.50;2.43;;;14.00;99.90;;;;;;6187570;23;20205;-95
2021/11/06 11:45:07;;;;;;;10.70;3.17;;;14.00;99.90;;;;;;6216205;23;20272;-94
2021/11/06 11:48:13;;;;;;;6.93;3.10;;;13.80;99.90;;;;;;6214101;23;20259;-94
2021/11/06 11:50:42;;;;;;;5.17;2.23;;;13.80;99.90;;;;;;6243407;22;20487;-94
2021/11/06 11:53:20;;;;;;;5.07;2.33;;;13.80;99.90;;;;;;6221977;22;20252;-94
2021/11/06 11:55:51;;;;;;;3.53;2.00;;;13.90;99.90;;;;;;6169463;23;20162;-93
2021/11/06 11:58:24;;;;;;;3.33;2.37;;;13.80;99.90;;;;;;6182033;23;20217;-95
2021/11/06 12:00:59;;;;;;;3.87;3.40;;;13.70;99.90;;;;;;6205637;23;20208;-94
2021/11/06 12:03:41;;;;;;;9.47;3.00;;;13.70;99.90;;;;;;6219409;23;20209;-92
2021/11/06 12:06:21;;;;;;;10.13;2.07;;;13.80;99.90;;;;;;6215554;23;20201;-92
2021/11/06 12:08:51;;;;;;;2.30;2.10;;;13.70;99.90;;;;;;6213848;23;20633;-93
2021/11/06 12:11:26;;;;;;;3.57;2.30;;;13.70;99.90;;;;;;6189437;22;20157;-93
2021/11/06 12:13:55;;;;;;;3.73;3.20;;;13.70;99.90;;;;;;6214254;23;20157;-93
2021/11/06 12:16:41;;;;;;;8.37;2.33;;;13.80;99.90;;;;;;6213129;23;20236;-91
2021/11/06 12:19:07;;;;;;;8.73;3.10;;;13.80;99.90;;;;;;6213386;23;20255;-91
2021/11/06 12:21:39;;;;;;;1.97;1.87;;;13.80;99.90;;;;;;6165051;23;20205;-89
2021/11/06 12:24:08;;;;;;;4.53;2.60;;;13.80;99.90;;;;;;6214027;23;20689;-91
2021/11/06 12:26:45;;;;;;;7.43;1.97;;;13.80;99.90;;;;;;6213485;23;20227;-91
2021/11/06 12:29:11;;;;;;;2.47;1.60;;;13.70;99.90;;;;;;6213781;22;20152;-93
2021/11/06 12:31:40;;;;;;;1.50;1.37;;;13.60;99.90;;;;;;6214315;23;20161;-93
2021/11/06 12:34:07;;;;;;;1.90;1.77;;;13.60;99.90;;;;;;6213810;23;20217;-92
2021/11/06 12:36:41;;;;;;;5.20;2.10;;;13.50;99.90;;;;;;6192178;23;20197;-93
2021/11/06 12:39:07;;;;;;;6.60;2.17;;;13.50;99.90;;;;;;6191001;23;20201;-93
2021/11/06 12:41:38;;;;;;;4.27;1.83;;;13.40;99.90;;;;;;6217022;23;20565;-93
2021/11/06 12:44:07;;;;;;;5.60;2.03;;;13.40;99.90;;;;;;6218136;23;20179;-93
2021/11/06 12:46:38;;;;;;;4.00;2.17;;;13.40;99.90;;;;;;6217084;23;20177;-94
2021/11/06 12:49:08;;;;;;;4.63;1.87;;;13.30;99.90;;;;;;6212947;23;20205;-91
2021/11/06 12:51:38;;;;;;;4.97;1.80;;;13.30;99.90;;;;;;6214527;23;20284;-93